Time;durP1;ratioP1;P1;durP2;ratioP2;P2;SDS_P1;SDS_P2;PMS_P1;PMS_P2;Temp;Humidity;BMP_temperature;BMP_pressure;BME280_temperature;BME280_humidity;BME280_pressure;Samples;Min_cycle;Max_cycle;Signal;HPM_P1;HPM_P2
2024/03/26 08:04:18;;;;;;;;;;;;;;;11.28;70.87;100390.94;5009462;28;20763;-75
2024/03/26 08:06:43;;;;;;;;;;;;;;;11.48;70.85;100386.41;5014671;28;19929;-76
2024/03/26 08:09:08;;;;;;;;;;;;;;;11.59;69.38;100381.56;5014322;28;19909;-76
2024/03/26 08:11:34;;;;;;;;;;;;;;;11.68;65.99;100380.97;5014093;28;19922;-75
2024/03/26 08:14:00;;;;;;;;;;;;;;;11.78;67.16;100385.59;5013610;28;20099;-75
2024/03/26 08:16:25;;;;;;;;;;;;;;;11.81;62.23;100375.34;5014174;28;19928;-75
2024/03/26 08:18:51;;;;;;;;;;;;;;;11.87;63.90;100376.38;5014436;28;19921;-76
2024/03/26 08:21:16;;;;;;;;;;;;;;;11.93;63.72;100382.59;5014191;28;19951;-75
2024/03/26 08:23:42;;;;;;;;;;;;;;;12.06;66.33;100383.88;5014273;28;19918;-75
2024/03/26 08:26:07;;;;;;;;;;;;;;;12.19;66.06;100389.44;5013894;28;19926;-75
2024/03/26 08:28:32;;;;;;;;;;;;;;;12.29;66.09;100381.94;5014403;28;20396;-75
2024/03/26 08:30:58;;;;;;;;;;;;;;;12.41;63.50;100381.44;5014208;28;20364;-75
2024/03/26 08:33:23;;;;;;;;;;;;;;;12.40;63.86;100369.31;5013604;28;19921;-75
2024/03/26 08:35:49;;;;;;;;;;;;;;;12.30;61.81;100360.41;5013364;28;19918;-74
2024/03/26 08:38:14;;;;;;;;;;;;;;;12.39;63.61;100358.94;5013406;28;19960;-75
2024/03/26 08:40:40;;;;;;;;;;;;;;;12.36;63.83;100361.41;5013195;28;19918;-75
2024/03/26 08:43:06;;;;;;;;;;;;;;;12.38;62.08;100350.25;5011934;28;19926;-75
2024/03/26 08:45:32;;;;;;;;;;;;;;;12.42;61.54;100346.94;5014131;28;19929;-75
2024/03/26 08:47:59;;;;;;;;;;;;;;;12.52;64.25;100357.53;5013125;28;19921;-74
2024/03/26 08:50:24;;;;;;;;;;;;;;;12.58;66.10;100355.97;5013305;28;19932;-75
2024/03/26 08:52:49;;;;;;;;;;;;;;;12.72;62.01;100352.88;5013753;28;19917;-75
2024/03/26 08:55:15;;;;;;;;;;;;;;;12.97;56.81;100356.97;5011595;28;20371;-76
2024/03/26 08:57:40;;;;;;;;;;;;;;;13.20;50.15;100330.78;5012188;28;19932;-75
2024/03/26 09:00:09;;;;;;;;;;;;;;;13.32;52.28;100322.41;5013699;28;20510;-76
2024/03/26 09:02:35;;;;;;;;;;;;;;;13.32;49.41;100328.47;5010054;28;19984;-75
2024/03/26 09:05:00;;;;;;;;;;;;;;;13.22;54.51;100329.97;5018167;28;19925;-75
2024/03/26 09:07:26;;;;;;;;;;;;;;;13.09;57.54;100315.81;5020196;28;19917;-76
2024/03/26 09:09:51;;;;;;;;;;;;;;;13.10;56.00;100322.75;5019136;28;19921;-75
2024/03/26 09:12:17;;;;;;;;;;;;;;;13.22;61.64;100316.13;5018809;28;19917;-76
2024/03/26 09:14:43;;;;;;;;;;;;;;;13.06;62.46;100325.22;5018174;28;20423;-75
2024/03/26 09:17:08;;;;;;;;;;;;;;;13.16;62.88;100323.75;5021756;28;19921;-76
2024/03/26 09:19:33;;;;;;;;;;;;;;;13.35;63.92;100328.53;5022658;28;19921;-75
2024/03/26 09:21:58;;;;;;;;;;;;;;;13.46;59.05;100331.41;5017954;28;20008;-75
2024/03/26 09:24:24;;;;;;;;;;;;;;;13.54;57.27;100323.81;5018152;28;19921;-75
2024/03/26 09:26:49;;;;;;;;;;;;;;;13.56;59.89;100319.53;5019713;28;20015;-76
2024/03/26 09:29:14;;;;;;;;;;;;;;;13.77;57.54;100332.09;5002471;28;19924;-75
2024/03/26 09:31:40;;;;;;;;;;;;;;;13.92;56.77;100318.59;5020504;28;19918;-75
2024/03/26 09:34:05;;;;;;;;;;;;;;;13.93;62.21;100312.50;5015963;28;19980;-75
2024/03/26 09:36:31;;;;;;;;;;;;;;;14.05;60.80;100307.56;5018975;28;19921;-75
2024/03/26 09:38:57;;;;;;;;;;;;;;;14.12;63.68;100303.41;5019686;28;19917;-76
2024/03/26 09:41:22;;;;;;;;;;;;;;;14.06;63.81;100298.09;5012299;28;20403;-75
2024/03/26 09:43:52;;;;;;;;;;;;;;;14.08;62.09;100305.06;5012148;28;20304;-75
2024/03/26 09:46:18;;;;;;;;;;;;;;;14.24;59.14;100307.94;5012487;28;19988;-75
2024/03/26 09:48:43;;;;;;;;;;;;;;;14.41;57.42;100300.47;5012455;28;20367;-75
2024/03/26 09:51:10;;;;;;;;;;;;;;;14.44;58.67;100294.47;5012056;28;19924;-76
2024/03/26 09:53:37;;;;;;;;;;;;;;;14.31;57.37;100302.03;5011717;28;19925;-75
2024/03/26 09:56:03;;;;;;;;;;;;;;;14.20;60.85;100291.44;5011697;28;20363;-76
2024/03/26 09:58:28;;;;;;;;;;;;;;;14.22;61.86;100281.97;5012338;28;19990;-75
2024/03/26 10:00:54;;;;;;;;;;;;;;;14.36;59.62;100294.34;5011625;28;20377;-75
2024/03/26 10:03:20;;;;;;;;;;;;;;;14.42;57.33;100291.84;5011638;28;20387;-76
2024/03/26 10:05:46;;;;;;;;;;;;;;;14.37;58.70;100288.31;5011983;28;19926;-76
2024/03/26 10:08:11;;;;;;;;;;;;;;;14.34;58.38;100286.53;5011141;28;19924;-76
2024/03/26 10:10:43;;;;;;;;;;;;;;;14.46;60.25;100291.06;5011798;28;19925;-76
2024/03/26 10:13:11;;;;;;;;;;;;;;;14.53;61.90;100279.06;5003405;28;20016;-75
2024/03/26 10:15:39;;;;;;;;;;;;;;;14.74;63.43;100267.31;5011306;28;19926;-76
2024/03/26 10:18:06;;;;;;;;;;;;;;;14.79;59.28;100270.84;5011637;28;20354;-75
2024/03/26 10:20:31;;;;;;;;;;;;;;;14.90;55.45;100263.25;5011573;28;19922;-76
2024/03/26 10:23:11;;;;;;;;;;;;;;;14.97;55.09;100268.56;5011753;28;20346;-76
2024/03/26 10:25:37;;;;;;;;;;;;;;;14.98;53.90;100259.91;5010061;28;20455;-76
2024/03/26 10:28:02;;;;;;;;;;;;;;;14.87;56.88;100256.28;5011011;28;20017;-76
2024/03/26 10:30:28;;;;;;;;;;;;;;;14.82;61.32;100251.00;5010098;28;20008;-76
2024/03/26 10:32:55;;;;;;;;;;;;;;;14.88;62.17;100252.81;5011334;28;19924;-76
2024/03/26 10:35:24;;;;;;;;;;;;;;;14.94;61.67;100254.63;5011881;28;19922;-76
2024/03/26 10:37:51;;;;;;;;;;;;;;;14.99;60.02;100245.16;5011588;28;19925;-75
2024/03/26 10:40:28;;;;;;;;;;;;;;;15.04;62.65;100246.09;5011115;28;19928;-76
2024/03/26 10:42:54;;;;;;;;;;;;;;;15.00;61.86;100245.22;5011228;28;20442;-76
2024/03/26 10:45:19;;;;;;;;;;;;;;;15.11;60.21;100231.50;5011360;28;19921;-76
2024/03/26 10:47:46;;;;;;;;;;;;;;;15.13;61.81;100225.47;5010758;28;19944;-76
2024/03/26 10:50:12;;;;;;;;;;;;;;;15.14;67.40;100223.72;5011151;28;19918;-76
2024/03/26 10:52:37;;;;;;;;;;;;;;;15.23;63.49;100223.88;5011246;28;19983;-76
2024/03/26 10:55:03;;;;;;;;;;;;;;;15.36;60.97;100231.00;5011104;28;19926;-76
2024/03/26 10:57:29;;;;;;;;;;;;;;;15.51;61.46;100221.63;5011281;28;19965;-76
2024/03/26 10:59:55;;;;;;;;;;;;;;;15.38;63.06;100215.41;5010739;28;20367;-76
2024/03/26 11:02:21;;;;;;;;;;;;;;;15.44;58.64;100220.69;5011107;28;20024;-76
2024/03/26 11:04:46;;;;;;;;;;;;;;;15.57;58.76;100211.28;5010925;28;20379;-76
2024/03/26 11:07:13;;;;;;;;;;;;;;;15.67;58.11;100217.50;5010611;28;19921;-76
2024/03/26 11:09:39;;;;;;;;;;;;;;;15.59;60.06;100217.41;5011357;28;19995;-75
2024/03/26 11:12:09;;;;;;;;;;;;;;;15.51;63.19;100213.81;5010992;28;20383;-76
2024/03/26 11:14:43;;;;;;;;;;;;;;;15.65;63.23;100214.88;5010947;28;19925;-76
2024/03/26 11:17:10;;;;;;;;;;;;;;;15.81;61.26;100202.91;5011614;28;19918;-76
2024/03/26 11:19:38;;;;;;;;;;;;;;;15.94;61.66;100205.69;5009764;28;20011;-76
2024/03/26 11:22:03;;;;;;;;;;;;;;;15.90;59.15;100198.69;5010426;28;19933;-77
2024/03/26 11:24:32;;;;;;;;;;;;;;;15.90;61.66;100201.28;5010735;28;19948;-76
2024/03/26 11:26:59;;;;;;;;;;;;;;;15.81;61.22;100196.81;5011128;28;19929;-76
2024/03/26 11:29:25;;;;;;;;;;;;;;;15.57;64.04;100205.22;5010816;28;19940;-76
2024/03/26 11:31:50;;;;;;;;;;;;;;;15.55;63.74;100201.72;5011276;28;20404;-76
2024/03/26 11:34:15;;;;;;;;;;;;;;;15.57;62.83;100197.44;5010586;28;19922;-76
2024/03/26 11:36:41;;;;;;;;;;;;;;;15.64;60.99;100194.91;5010673;28;19926;-76
2024/03/26 11:39:07;;;;;;;;;;;;;;;15.69;59.73;100184.56;5010595;28;19921;-76
2024/03/26 11:41:32;;;;;;;;;;;;;;;15.68;60.45;100172.41;5010353;28;20304;-76
2024/03/26 11:43:59;;;;;;;;;;;;;;;15.81;61.48;100173.41;5010461;28;19917;-76
2024/03/26 11:46:25;;;;;;;;;;;;;;;15.89;64.24;100181.31;5011039;28;19976;-76
2024/03/26 11:49:00;;;;;;;;;;;;;;;15.81;63.43;100170.78;5010931;28;19917;-77
2024/03/26 11:51:27;;;;;;;;;;;;;;;15.53;65.70;100153.13;5002306;28;19929;-76
2024/03/26 11:53:53;;;;;;;;;;;;;;;15.45;65.16;100159.13;5010577;28;19918;-76
2024/03/26 11:56:18;;;;;;;;;;;;;;;15.40;66.92;100171.19;5010793;28;20392;-76
2024/03/26 11:58:46;;;;;;;;;;;;;;;15.24;65.98;100159.72;5010349;28;20407;-76
2024/03/26 12:01:12;;;;;;;;;;;;;;;15.23;69.55;100173.56;5010592;28;19961;-76
2024/03/26 12:03:37;;;;;;;;;;;;;;;15.33;70.91;100147.72;5014914;28;20007;-76
2024/03/26 12:06:03;;;;;;;;;;;;;;;15.36;69.44;100168.56;5019948;28;19921;-76
2024/03/26 12:08:28;;;;;;;;;;;;;;;15.34;68.75;100167.66;5021359;28;19925;-76
2024/03/26 12:10:54;;;;;;;;;;;;;;;15.19;70.37;100163.16;5021813;28;19918;-76
2024/03/26 12:13:19;;;;;;;;;;;;;;;15.22;67.85;100161.44;5021403;28;20012;-76
2024/03/26 12:15:44;;;;;;;;;;;;;;;15.25;65.40;100161.47;5020922;28;19928;-77
2024/03/26 12:18:10;;;;;;;;;;;;;;;15.41;67.88;100157.34;5014250;28;19940;-76
2024/03/26 12:20:35;;;;;;;;;;;;;;;15.43;67.14;100159.09;5019370;28;19929;-76
2024/03/26 12:23:04;;;;;;;;;;;;;;;15.29;68.64;100152.84;5018984;28;19917;-76
2024/03/26 12:25:30;;;;;;;;;;;;;;;15.23;72.52;100148.47;5019505;28;19943;-77
2024/03/26 12:27:58;;;;;;;;;;;;;;;15.25;68.99;100154.53;5019526;28;19917;-76
2024/03/26 12:30:23;;;;;;;;;;;;;;;15.26;66.89;100152.81;5019981;28;19996;-75
2024/03/26 12:32:57;;;;;;;;;;;;;;;15.25;70.64;100151.94;5024331;28;20025;-76
2024/03/26 12:35:23;;;;;;;;;;;;;;;15.28;72.43;100138.97;5025090;28;19943;-76
2024/03/26 12:37:49;;;;;;;;;;;;;;;15.43;66.60;100129.63;5024989;28;20440;-76
2024/03/26 12:40:15;;;;;;;;;;;;;;;15.43;67.50;100114.03;5023590;28;20132;-75
2024/03/26 12:42:40;;;;;;;;;;;;;;;15.24;68.52;100110.31;5023882;28;19957;-76
2024/03/26 12:45:07;;;;;;;;;;;;;;;15.09;68.94;100124.00;5025015;28;19945;-76
2024/03/26 12:47:32;;;;;;;;;;;;;;;15.12;66.81;100132.72;5024355;28;19964;-75
2024/03/26 12:49:58;;;;;;;;;;;;;;;15.25;71.19;100131.13;5006699;28;20402;-76
2024/03/26 12:52:23;;;;;;;;;;;;;;;15.28;67.38;100127.72;5022562;28;20272;-76
2024/03/26 12:54:48;;;;;;;;;;;;;;;15.33;66.63;100113.91;5022070;28;19944;-76
2024/03/26 12:57:14;;;;;;;;;;;;;;;15.38;68.72;100111.34;5022541;28;20008;-76
2024/03/26 12:59:39;;;;;;;;;;;;;;;15.25;66.00;100110.31;5003637;28;20015;-76
2024/03/26 13:02:05;;;;;;;;;;;;;;;15.18;67.91;100118.94;5025730;28;20017;-76
2024/03/26 13:04:31;;;;;;;;;;;;;;;15.13;70.96;100125.81;5014894;28;19925;-76
2024/03/26 13:06:57;;;;;;;;;;;;;;;15.14;68.41;100117.13;5013462;28;19918;-77
2024/03/26 13:09:22;;;;;;;;;;;;;;;15.17;69.81;100110.22;5012774;28;19928;-76
2024/03/26 13:11:47;;;;;;;;;;;;;;;15.18;63.75;100111.13;5013023;28;20307;-76
2024/03/26 13:14:12;;;;;;;;;;;;;;;15.19;65.98;100112.88;5012930;28;19928;-77
2024/03/26 13:16:38;;;;;;;;;;;;;;;15.00;67.01;100104.84;5012965;28;19980;-76
2024/03/26 13:19:03;;;;;;;;;;;;;;;14.86;67.26;100104.63;5012859;28;19979;-76
2024/03/26 13:21:30;;;;;;;;;;;;;;;14.86;70.83;100114.16;5012566;28;19918;-75
2024/03/26 13:23:55;;;;;;;;;;;;;;;14.77;68.66;100121.84;4993898;28;19917;-76
2024/03/26 13:26:20;;;;;;;;;;;;;;;14.81;69.57;100114.09;5012895;28;19921;-76
2024/03/26 13:28:46;;;;;;;;;;;;;;;14.81;67.21;100113.25;5012742;28;19927;-75
2024/03/26 13:31:11;;;;;;;;;;;;;;;14.74;71.81;100103.59;5012643;28;19943;-76
2024/03/26 13:33:36;;;;;;;;;;;;;;;14.63;72.31;100119.88;5012236;28;20303;-76
2024/03/26 13:36:02;;;;;;;;;;;;;;;14.65;72.24;100113.00;5012244;28;20035;-75
2024/03/26 13:38:27;;;;;;;;;;;;;;;14.63;69.67;100108.59;5012295;28;20462;-75
2024/03/26 13:40:53;;;;;;;;;;;;;;;14.54;74.82;100115.44;5012492;28;19932;-76
2024/03/26 13:43:18;;;;;;;;;;;;;;;14.39;69.54;100092.69;5011761;28;19975;-77
2024/03/26 13:45:44;;;;;;;;;;;;;;;14.32;69.70;100101.22;5012662;28;19917;-77
2024/03/26 13:48:11;;;;;;;;;;;;;;;14.38;71.31;100105.63;5012262;28;19921;-75
2024/03/26 13:50:38;;;;;;;;;;;;;;;14.30;71.82;100108.13;5011843;28;19944;-75
2024/03/26 13:53:03;;;;;;;;;;;;;;;14.20;72.95;100111.41;5012754;28;19922;-75
2024/03/26 13:55:28;;;;;;;;;;;;;;;14.09;76.42;100113.84;5012520;28;19931;-75
2024/03/26 13:57:54;;;;;;;;;;;;;;;14.00;75.44;100103.31;5012534;28;20024;-75
2024/03/26 14:00:19;;;;;;;;;;;;;;;14.01;71.79;100108.50;5009407;28;20117;-75
2024/03/26 14:02:44;;;;;;;;;;;;;;;14.05;73.95;100117.22;5011794;28;19960;-76
2024/03/26 14:05:10;;;;;;;;;;;;;;;14.02;77.41;100109.41;5020290;28;19921;-76
2024/03/26 14:07:35;;;;;;;;;;;;;;;14.05;74.28;100112.91;5022605;28;19948;-75
2024/03/26 14:10:01;;;;;;;;;;;;;;;14.09;74.79;100116.44;5023408;28;20403;-75
2024/03/26 14:12:26;;;;;;;;;;;;;;;13.96;72.38;100110.16;5023036;28;19976;-75
2024/03/26 14:14:51;;;;;;;;;;;;;;;13.87;71.93;100110.00;5022073;28;20402;-76
2024/03/26 14:17:17;;;;;;;;;;;;;;;13.84;73.26;100115.13;5013203;28;19921;-75
2024/03/26 14:19:42;;;;;;;;;;;;;;;13.87;73.73;100115.22;5022939;28;20305;-76
2024/03/26 14:22:09;;;;;;;;;;;;;;;13.88;70.90;100106.53;5014228;28;19988;-76
2024/03/26 14:24:34;;;;;;;;;;;;;;;13.84;74.43;100105.63;5023288;28;19913;-75
2024/03/26 14:27:00;;;;;;;;;;;;;;;13.90;74.73;100110.06;5021649;28;19921;-76
2024/03/26 14:29:25;;;;;;;;;;;;;;;13.90;72.79;100108.31;5022132;28;19921;-76
2024/03/26 14:31:50;;;;;;;;;;;;;;;13.91;75.02;100097.09;5022315;28;19983;-76
2024/03/26 14:34:16;;;;;;;;;;;;;;;13.95;74.23;100099.75;5022790;28;19979;-77
2024/03/26 14:36:42;;;;;;;;;;;;;;;13.99;73.79;100094.63;5023040;28;20311;-76
2024/03/26 14:39:09;;;;;;;;;;;;;;;14.03;71.84;100099.03;5020901;28;19913;-76
2024/03/26 14:41:35;;;;;;;;;;;;;;;14.11;69.57;100093.13;5020855;28;19921;-76
2024/03/26 14:44:00;;;;;;;;;;;;;;;14.22;69.39;100100.22;5020766;28;19940;-76
2024/03/26 14:46:25;;;;;;;;;;;;;;;14.25;67.95;100096.78;5020874;28;20299;-76
2024/03/26 14:48:51;;;;;;;;;;;;;;;14.22;68.72;100101.94;5021996;28;20375;-77
2024/03/26 14:51:16;;;;;;;;;;;;;;;14.15;68.20;100097.50;5022530;28;20316;-76
2024/03/26 14:53:41;;;;;;;;;;;;;;;14.07;67.28;100107.75;5019684;28;20451;-76
2024/03/26 14:56:07;;;;;;;;;;;;;;;13.99;66.78;100099.81;5022751;28;19936;-77
2024/03/26 14:58:32;;;;;;;;;;;;;;;13.91;67.66;100106.63;4976038;28;20422;-77
2024/03/26 15:00:57;;;;;;;;;;;;;;;13.91;66.84;100109.22;5024323;28;19925;-77
2024/03/26 15:03:23;;;;;;;;;;;;;;;13.96;66.35;100112.75;5020308;28;19925;-77
2024/03/26 15:05:49;;;;;;;;;;;;;;;13.90;67.02;100112.66;5019633;28;20012;-77
2024/03/26 15:08:15;;;;;;;;;;;;;;;13.80;67.02;100111.59;5020416;28;19921;-77
2024/03/26 15:10:42;;;;;;;;;;;;;;;13.75;65.58;100119.28;5002684;28;19979;-76
2024/03/26 15:13:08;;;;;;;;;;;;;;;13.76;66.99;100107.22;5022086;28;19921;-77
2024/03/26 15:15:36;;;;;;;;;;;;;;;13.65;66.00;100103.56;5021670;28;19961;-76
2024/03/26 15:18:03;;;;;;;;;;;;;;;13.59;67.20;100107.78;5020407;28;19991;-76
2024/03/26 15:20:28;;;;;;;;;;;;;;;13.54;67.70;100105.94;5022449;28;19917;-77
2024/03/26 15:22:53;;;;;;;;;;;;;;;13.47;68.27;100098.88;5018303;28;19978;-77
2024/03/26 15:25:19;;;;;;;;;;;;;;;13.38;69.30;100102.19;5020318;28;19925;-77
2024/03/26 15:33:13;;;;;;;;;;;;;;;13.19;69.00;100108.69;5020388;28;19945;-78
2024/03/26 15:35:38;;;;;;;;;;;;;;;13.18;69.07;100099.16;5020971;28;20568;-76
2024/03/26 15:38:04;;;;;;;;;;;;;;;13.13;71.22;100108.56;5021686;28;19925;-76
2024/03/26 15:40:29;;;;;;;;;;;;;;;13.06;73.74;100111.03;5021659;28;19926;-76
2024/03/26 15:42:55;;;;;;;;;;;;;;;13.00;72.01;100105.72;5020051;28;19921;-77
2024/03/26 15:45:20;;;;;;;;;;;;;;;12.91;72.32;100102.91;5003664;28;19953;-76
2024/03/26 15:47:45;;;;;;;;;;;;;;;12.81;72.84;100103.56;5022294;28;20319;-75
2024/03/26 15:50:11;;;;;;;;;;;;;;;12.70;73.14;100100.75;5022162;28;20004;-76
2024/03/26 15:52:36;;;;;;;;;;;;;;;12.67;73.13;100104.13;5020885;28;19964;-76
2024/03/26 15:55:02;;;;;;;;;;;;;;;12.61;73.25;100098.78;5019773;28;19955;-76
2024/03/26 15:57:29;;;;;;;;;;;;;;;12.58;71.94;100098.75;5016609;28;19925;-75
2024/03/26 15:59:54;;;;;;;;;;;;;;;12.58;71.67;100102.19;5019900;28;19970;-74
2024/03/26 16:02:19;;;;;;;;;;;;;;;12.57;71.53;100097.00;5020304;28;20377;-75
2024/03/26 16:04:45;;;;;;;;;;;;;;;12.56;71.82;100096.13;5021908;28;20367;-76
2024/03/26 16:07:10;;;;;;;;;;;;;;;12.57;70.91;100100.47;5023447;28;19940;-75
2024/03/26 16:09:35;;;;;;;;;;;;;;;12.51;71.21;100099.44;5022377;28;19924;-75
2024/03/26 16:12:03;;;;;;;;;;;;;;;12.50;71.63;100114.13;5030577;28;19928;-75
2024/03/26 16:14:29;;;;;;;;;;;;;;;12.52;71.22;100107.22;5023438;28;20338;-76
2024/03/26 16:16:55;;;;;;;;;;;;;;;12.52;71.08;100108.97;5019818;28;20011;-75
2024/03/26 16:19:20;;;;;;;;;;;;;;;12.58;70.79;100103.94;5024282;28;19931;-75
2024/03/26 16:22:05;;;;;;;;;;;;;;;12.57;70.17;100102.16;5017931;28;19971;-75
2024/03/26 16:24:32;;;;;;;;;;;;;;;12.60;70.73;100097.94;4981582;28;19928;-75
2024/03/26 16:26:57;;;;;;;;;;;;;;;12.51;72.83;100089.09;4981592;28;19922;-76
2024/03/26 16:29:24;;;;;;;;;;;;;;;12.40;74.43;100089.72;4982950;28;19974;-76
2024/03/26 16:31:49;;;;;;;;;;;;;;;12.29;75.23;100096.34;4980608;28;19918;-76
2024/03/26 16:34:15;;;;;;;;;;;;;;;12.19;75.52;100082.31;4984425;28;20372;-76
2024/03/26 16:36:43;;;;;;;;;;;;;;;12.20;73.67;100081.47;4982746;28;20380;-76
2024/03/26 16:39:08;;;;;;;;;;;;;;;12.18;74.34;100083.16;4981828;28;19926;-76
2024/03/26 16:41:35;;;;;;;;;;;;;;;12.19;74.66;100078.88;4980916;28;19918;-75
2024/03/26 16:44:01;;;;;;;;;;;;;;;12.18;74.45;100079.69;4981157;28;19922;-76
2024/03/26 16:46:27;;;;;;;;;;;;;;;12.12;74.56;100083.00;4982423;28;19961;-76
2024/03/26 16:48:53;;;;;;;;;;;;;;;12.16;75.53;100083.94;4982235;28;19956;-76
2024/03/26 16:51:38;;;;;;;;;;;;;;;11.97;77.24;100086.09;4983534;28;20313;-77
2024/03/26 16:54:04;;;;;;;;;;;;;;;11.89;78.17;100090.19;4942799;28;20410;-77
2024/03/26 16:56:30;;;;;;;;;;;;;;;11.82;78.54;100079.66;4986765;28;20025;-77
2024/03/26 16:58:56;;;;;;;;;;;;;;;11.76;78.07;100073.44;4991938;28;20289;-77
2024/03/26 17:01:22;;;;;;;;;;;;;;;11.68;77.83;100070.66;4975225;28;19918;-76
2024/03/26 17:03:47;;;;;;;;;;;;;;;11.59;77.98;100067.81;4997861;28;20406;-76
2024/03/26 17:06:12;;;;;;;;;;;;;;;11.53;78.16;100070.28;5010455;28;20026;-76
2024/03/26 17:08:38;;;;;;;;;;;;;;;11.44;78.44;100071.78;5010451;28;19922;-77
2024/03/26 17:11:03;;;;;;;;;;;;;;;11.44;78.14;100066.59;5010860;28;20036;-77
2024/03/26 17:13:29;;;;;;;;;;;;;;;11.43;77.39;100059.69;5010052;28;19928;-76
2024/03/26 17:15:54;;;;;;;;;;;;;;;11.42;76.74;100057.06;5008081;28;20493;-77
2024/03/26 17:18:20;;;;;;;;;;;;;;;11.38;76.31;100070.75;5008986;28;20380;-77
2024/03/26 17:20:45;;;;;;;;;;;;;;;11.36;76.73;100067.22;5010672;28;19944;-77
2024/03/26 17:23:13;;;;;;;;;;;;;;;11.36;77.45;100064.66;5010216;28;20399;-77
2024/03/26 17:25:38;;;;;;;;;;;;;;;11.33;78.79;100068.03;5009951;28;20388;-77
2024/03/26 17:28:03;;;;;;;;;;;;;;;11.33;78.76;100068.03;5009845;28;19921;-77
2024/03/26 17:30:29;;;;;;;;;;;;;;;11.30;78.69;100070.50;5010068;28;19979;-76
2024/03/26 17:32:54;;;;;;;;;;;;;;;11.28;78.99;100067.03;5012547;28;19921;-76
2024/03/26 17:35:20;;;;;;;;;;;;;;;11.30;78.51;100061.06;5012447;28;19928;-76
2024/03/26 17:37:46;;;;;;;;;;;;;;;11.27;78.58;100060.97;5012860;28;19968;-76
2024/03/26 17:40:11;;;;;;;;;;;;;;;11.27;78.65;100063.56;5012229;28;20056;-77
2024/03/26 17:42:38;;;;;;;;;;;;;;;11.25;79.03;100062.66;5010930;28;20015;-75
2024/03/26 17:45:04;;;;;;;;;;;;;;;11.21;78.69;100071.13;5012252;28;20096;-76
2024/03/26 17:47:30;;;;;;;;;;;;;;;11.16;79.94;100078.78;5012194;28;20407;-76
2024/03/26 17:49:55;;;;;;;;;;;;;;;11.16;80.99;100063.28;5012655;28;20009;-76
2024/03/26 17:52:21;;;;;;;;;;;;;;;11.07;80.83;100068.16;5012218;28;19921;-75
2024/03/26 17:54:47;;;;;;;;;;;;;;;11.06;79.31;100062.97;5012282;28;19928;-75
2024/03/26 17:57:13;;;;;;;;;;;;;;;11.03;78.82;100065.44;5010631;28;19925;-76
2024/03/26 17:59:39;;;;;;;;;;;;;;;10.99;78.64;100061.88;5011714;28;20027;-75
2024/03/26 18:02:04;;;;;;;;;;;;;;;11.00;78.43;100066.22;5006831;28;19996;-75
2024/03/26 18:04:30;;;;;;;;;;;;;;;11.00;77.88;100063.66;5011695;28;20013;-75
2024/03/26 18:06:55;;;;;;;;;;;;;;;11.02;79.20;100067.16;5011876;28;19921;-75
2024/03/26 18:09:22;;;;;;;;;;;;;;;10.95;80.13;100066.13;5011957;28;20370;-75
2024/03/26 18:11:48;;;;;;;;;;;;;;;10.93;81.11;100069.47;5011943;28;19921;-76
2024/03/26 18:14:15;;;;;;;;;;;;;;;10.96;81.36;100073.00;5011959;28;20482;-75
2024/03/26 18:16:40;;;;;;;;;;;;;;;11.01;80.34;100088.66;5004012;28;19917;-75
2024/03/26 18:19:06;;;;;;;;;;;;;;;10.97;78.93;100094.56;5010308;28;20008;-76
2024/03/26 18:21:31;;;;;;;;;;;;;;;10.89;79.57;100089.19;5011548;28;19918;-76
2024/03/26 18:23:56;;;;;;;;;;;;;;;10.80;80.20;100100.13;5011512;28;19917;-76
2024/03/26 18:26:22;;;;;;;;;;;;;;;10.76;81.22;100105.13;5011576;28;19921;-75
2024/03/26 18:28:47;;;;;;;;;;;;;;;10.81;82.74;100116.47;5011491;28;19972;-75
2024/03/26 18:31:12;;;;;;;;;;;;;;;10.88;81.67;100125.28;5011410;28;20431;-76
2024/03/26 18:33:38;;;;;;;;;;;;;;;10.98;78.75;100132.50;5011310;28;20012;-76
2024/03/26 18:36:05;;;;;;;;;;;;;;;11.02;79.49;100139.50;5011286;28;19947;-75
2024/03/26 18:38:31;;;;;;;;;;;;;;;11.06;79.47;100141.31;5011393;28;20063;-75
2024/03/26 18:40:58;;;;;;;;;;;;;;;11.06;80.95;100141.31;5011055;28;20430;-74
2024/03/26 18:43:24;;;;;;;;;;;;;;;11.06;80.52;100143.91;5011368;28;19925;-75
2024/03/26 18:45:50;;;;;;;;;;;;;;;11.05;80.80;100129.22;4991636;28;19926;-76
2024/03/26 18:48:15;;;;;;;;;;;;;;;10.98;81.77;100128.19;4989121;28;20277;-76
2024/03/26 18:50:41;;;;;;;;;;;;;;;10.99;83.04;100135.13;4989819;28;19925;-76
2024/03/26 18:53:06;;;;;;;;;;;;;;;10.94;83.52;100131.53;4991683;28;19925;-76
2024/03/26 18:55:32;;;;;;;;;;;;;;;10.85;83.93;100141.56;4988809;28;20015;-76
2024/03/26 18:58:02;;;;;;;;;;;;;;;10.83;84.60;100149.25;4989080;28;20078;-76
2024/03/26 19:00:34;;;;;;;;;;;;;;;10.86;85.04;100169.13;4988801;28;20012;-75
2024/03/26 19:02:59;;;;;;;;;;;;;;;10.91;84.02;100171.88;4988778;28;20016;-75
2024/03/26 19:05:25;;;;;;;;;;;;;;;10.94;83.88;100172.84;4988819;28;20020;-75
2024/03/26 19:07:50;;;;;;;;;;;;;;;11.04;84.95;100167.94;4981394;28;19937;-75
2024/03/26 19:10:16;;;;;;;;;;;;;;;11.06;86.07;100167.16;4996620;28;19950;-75
2024/03/26 19:12:41;;;;;;;;;;;;;;;10.94;89.86;100154.75;4988534;28;20431;-76
2024/03/26 19:15:08;;;;;;;;;;;;;;;10.71;93.65;100163.50;4989362;28;19957;-76
2024/03/26 19:17:33;;;;;;;;;;;;;;;10.42;97.90;100156.59;4969102;28;20407;-76
2024/03/26 19:19:59;;;;;;;;;;;;;;;10.17;100.00;100152.28;4991334;28;19917;-76
2024/03/26 19:22:25;;;;;;;;;;;;;;;10.01;100.00;100166.38;4991771;28;20041;-77
2024/03/26 19:24:54;;;;;;;;;;;;;;;9.99;100.00;100175.75;5009061;28;19922;-77
2024/03/26 19:27:22;;;;;;;;;;;;;;;10.09;100.00;100187.25;5010787;28;20004;-77
2024/03/26 19:29:54;;;;;;;;;;;;;;;10.18;100.00;100187.56;5010783;28;19922;-76
2024/03/26 19:32:21;;;;;;;;;;;;;;;10.23;100.00;100195.47;5006474;28;19921;-76
2024/03/26 19:34:46;;;;;;;;;;;;;;;10.27;100.00;100181.84;5009556;28;20505;-77
2024/03/26 19:37:12;;;;;;;;;;;;;;;10.23;100.00;100182.56;5011284;28;19921;-77
2024/03/26 19:39:37;;;;;;;;;;;;;;;10.15;100.00;100179.72;5010974;28;20016;-76
2024/03/26 19:42:03;;;;;;;;;;;;;;;9.96;100.00;100179.09;5013889;28;19926;-77
2024/03/26 19:44:32;;;;;;;;;;;;;;;9.86;100.00;100187.34;5014578;28;19922;-77
2024/03/26 19:46:57;;;;;;;;;;;;;;;9.61;100.00;100190.72;5014592;28;19987;-75
2024/03/26 19:49:26;;;;;;;;;;;;;;;9.56;100.00;100195.72;5014458;28;19922;-77
2024/03/26 19:51:51;;;;;;;;;;;;;;;9.48;100.00;100191.97;5014837;28;19925;-78
2024/03/26 19:54:19;;;;;;;;;;;;;;;9.60;100.00;100205.31;5014612;28;19980;-76
2024/03/26 19:56:44;;;;;;;;;;;;;;;9.65;100.00;100210.66;5010009;28;19933;-76
2024/03/26 19:59:10;;;;;;;;;;;;;;;9.63;100.00;100220.00;5014247;28;19925;-77
2024/03/26 20:01:35;;;;;;;;;;;;;;;9.64;100.00;100224.34;5014851;28;20306;-76
2024/03/26 20:04:03;;;;;;;;;;;;;;;9.65;100.00;100231.28;4962897;28;19932;-76
2024/03/26 20:06:48;;;;;;;;;;;;;;;9.58;100.00;100234.44;5017142;28;19984;-76
2024/03/26 20:09:15;;;;;;;;;;;;;;;9.36;100.00;100229.34;5021376;28;19980;-76
2024/03/26 20:11:41;;;;;;;;;;;;;;;9.22;100.00;100231.41;5021171;28;19991;-76
2024/03/26 20:14:29;;;;;;;;;;;;;;;9.16;100.00;100228.59;5010998;28;19925;-76
2024/03/26 20:16:55;;;;;;;;;;;;;;;9.07;100.00;100226.53;5011309;28;19929;-76
2024/03/26 20:19:20;;;;;;;;;;;;;;;9.01;100.00;100220.25;5011023;28;19925;-76
2024/03/26 20:21:47;;;;;;;;;;;;;;;8.97;100.00;100221.88;5011049;28;19921;-76
2024/03/26 20:24:13;;;;;;;;;;;;;;;8.98;100.00;100225.31;5011714;28;19917;-76
2024/03/26 20:26:38;;;;;;;;;;;;;;;9.02;100.00;100214.28;5010886;28;20439;-77
2024/03/26 20:29:05;;;;;;;;;;;;;;;8.92;100.00;100217.34;5011111;28;20356;-76
2024/03/26 20:31:31;;;;;;;;;;;;;;;8.83;100.00;100213.56;4994423;28;20406;-77
2024/03/26 20:33:56;;;;;;;;;;;;;;;8.70;100.00;100201.06;5011017;28;19922;-77
2024/03/26 20:36:24;;;;;;;;;;;;;;;8.61;100.00;100193.84;5010849;28;20296;-77
2024/03/26 20:38:51;;;;;;;;;;;;;;;8.41;100.00;100190.41;4961486;28;19922;-77